Weather at Kahului International Airport

Public forecast

Using degrees Fahrenheit for public forecast. Weather courtesy of forecast.io.

Current aviation weather report (METAR) for Kahului International Airport

2024/06/21 17:54 (retrieved 37 minutes ago)

PHOG 211754Z 05016G30KT 10SM FEW045 27/18 A3005

Aviation forecast (TAF) for Kahului International Airport

2024/06/21 18:22 (retrieved 9 minutes ago)

TAF PHOG 211720Z 2118/2218 05015G28KT P6SM FEW030 SCT050 FM212000 05024G34KT P6SM FEW030 SCT050 FM220600 04015G23KT P6SM FEW030 BKN050